Terminal Aerodrome Forecast
Issued by NWS Flagstaff, AZ

Home | Current Version | Previous Version | Text Only | Print | Product List | Glossary On
Versions: 1 2 3 4 5 6 7 8 9 10 11 12 13 14 15 16 17 18 19 20 21
754
FTUS45 KFGZ 251120
TAFFLG
TAF
KFLG 251120Z 2512/2612 VRB04KT P6SM FEW250
     FM251800 23014G22KT P6SM SCT040 BKN100
      TEMPO 2521/2524 6SM -SHRA BKN035 BKN100
     FM260200 VRB05KT P6SM FEW040=

USA.gov is the U.S. government's official web portal to all federal, state and local government web resources and services.